createdAt,value
2022-08-26T00:02:13.470Z,8.45
2022-08-26T00:04:44.508Z,6.97
2022-08-26T00:07:38.189Z,8.30
2022-08-26T00:10:08.025Z,7.57
2022-08-26T00:12:37.881Z,7.47
2022-08-26T00:15:08.901Z,8.25
2022-08-26T00:17:37.494Z,7.88
2022-08-26T00:20:11.727Z,8.13
2022-08-26T00:22:40.001Z,8.52
2022-08-26T00:25:10.894Z,8.55
2022-08-26T00:27:40.962Z,8.65
2022-08-26T00:30:14.117Z,8.40
2022-08-26T00:32:46.273Z,8.48
2022-08-26T00:35:15.291Z,8.85
2022-08-26T00:37:44.597Z,9.55
2022-08-26T00:40:21.412Z,8.55
2022-08-26T00:42:51.150Z,8.82
2022-08-26T00:45:19.661Z,8.20
2022-08-26T00:47:52.189Z,7.38
2022-08-26T00:50:25.065Z,7.75
2022-08-26T00:52:56.612Z,7.68
2022-08-26T00:55:34.520Z,8.63
2022-08-26T00:58:08.698Z,8.18
2022-08-26T01:00:37.178Z,7.57
2022-08-26T01:03:07.460Z,8.00
2022-08-26T01:05:40.640Z,8.52
2022-08-26T01:08:11.393Z,8.30
2022-08-26T01:10:40.352Z,7.57
2022-08-26T01:13:12.390Z,8.18
2022-08-26T01:15:45.742Z,8.27
2022-08-26T01:18:15.078Z,8.40
2022-08-26T01:20:57.715Z,7.20
2022-08-26T01:23:32.782Z,7.65
2022-08-26T01:26:06.711Z,7.93
2022-08-26T01:28:36.835Z,8.35
2022-08-26T01:31:09.038Z,8.15
2022-08-26T01:33:51.826Z,8.57
2022-08-26T01:36:21.764Z,9.00
2022-08-26T01:38:51.362Z,9.57
2022-08-26T01:41:27.250Z,8.93
2022-08-26T01:43:58.890Z,8.65
2022-08-26T01:46:29.618Z,8.73
2022-08-26T01:49:02.674Z,9.35
2022-08-26T01:51:32.640Z,8.65
2022-08-26T01:54:02.202Z,8.63
2022-08-26T01:56:36.603Z,9.80
2022-08-26T01:59:10.757Z,8.50
2022-08-26T02:01:40.552Z,8.52
2022-08-26T02:04:23.814Z,8.48
2022-08-26T02:06:53.815Z,8.70
2022-08-26T02:09:25.381Z,8.60
2022-08-26T02:11:55.400Z,9.35
2022-08-26T02:14:29.273Z,9.05
2022-08-26T02:16:58.446Z,9.02
2022-08-26T02:19:32.901Z,10.35
2022-08-26T02:22:05.359Z,10.73
2022-08-26T02:24:50.539Z,9.20
2022-08-26T02:27:23.705Z,9.20
2022-08-26T02:29:57.020Z,9.52
2022-08-26T02:32:26.034Z,9.27
2022-08-26T02:35:02.014Z,9.18
2022-08-26T02:37:32.187Z,7.95
2022-08-26T02:40:05.916Z,9.15
2022-08-26T02:42:34.273Z,8.35
2022-08-26T02:45:03.531Z,8.90
2022-08-26T02:47:34.402Z,9.40
2022-08-26T02:50:03.002Z,8.00
2022-08-26T02:52:31.206Z,7.85
2022-08-26T02:55:01.250Z,9.02
2022-08-26T02:57:32.076Z,9.60
2022-08-26T03:00:01.723Z,9.40
2022-08-26T03:02:31.103Z,8.77
2022-08-26T03:05:02.257Z,9.27
2022-08-26T03:07:31.220Z,9.45
2022-08-26T03:09:59.559Z,8.23
2022-08-26T03:12:27.875Z,9.05
2022-08-26T03:14:57.650Z,8.73
2022-08-26T03:17:26.906Z,8.27
2022-08-26T03:19:57.286Z,9.07
2022-08-26T03:22:27.117Z,9.02
2022-08-26T03:24:55.649Z,8.57
2022-08-26T03:27:23.872Z,8.18
2022-08-26T03:30:11.827Z,9.32
2022-08-26T03:32:41.771Z,9.57
2022-08-26T03:35:11.639Z,8.90
2022-08-26T03:37:40.794Z,9.10
2022-08-26T03:40:11.573Z,9.45
2022-08-26T03:42:41.680Z,9.80
2022-08-26T03:45:16.264Z,10.65
2022-08-26T03:47:47.508Z,10.77
2022-08-26T03:50:22.653Z,9.93
2022-08-26T03:52:52.631Z,9.68
2022-08-26T03:55:24.284Z,9.57
2022-08-26T03:57:52.774Z,8.98
2022-08-26T04:00:21.963Z,9.57
2022-08-26T04:02:53.410Z,9.18
2022-08-26T04:05:23.553Z,9.20
2022-08-26T04:07:52.402Z,9.30
2022-08-26T04:10:26.397Z,9.65
2022-08-26T04:13:00.705Z,9.55
2022-08-26T04:15:29.297Z,10.27
2022-08-26T04:17:59.070Z,9.32
2022-08-26T04:20:27.836Z,9.02
2022-08-26T04:22:56.438Z,9.77
2022-08-26T04:25:25.762Z,11.93
2022-08-26T04:27:54.928Z,10.38
2022-08-26T04:30:23.183Z,10.93
2022-08-26T04:32:52.231Z,10.23
2022-08-26T04:35:26.006Z,10.15
2022-08-26T04:37:56.061Z,9.82
2022-08-26T04:40:27.540Z,9.55
2022-08-26T04:42:56.482Z,10.30
2022-08-26T04:45:25.473Z,11.15
2022-08-26T04:47:56.272Z,10.90
2022-08-26T04:50:26.978Z,10.40
2022-08-26T04:52:56.112Z,10.20
2022-08-26T04:55:38.619Z,10.25
2022-08-26T04:58:10.462Z,9.77
2022-08-26T05:00:39.915Z,9.15
2022-08-26T05:03:10.284Z,9.73
2022-08-26T05:05:42.466Z,9.35
2022-08-26T05:08:12.434Z,10.13
2022-08-26T05:10:42.039Z,9.43
2022-08-26T05:13:15.114Z,8.77
2022-08-26T05:15:45.212Z,10.48
2022-08-26T05:18:16.394Z,9.82
2022-08-26T05:20:49.663Z,10.00
2022-08-26T05:23:19.845Z,10.32
2022-08-26T05:25:53.603Z,10.65
2022-08-26T05:28:24.199Z,9.98
2022-08-26T05:30:53.265Z,11.82
2022-08-26T05:33:21.973Z,11.73
2022-08-26T05:35:51.851Z,11.52
2022-08-26T05:38:22.860Z,11.63
2022-08-26T05:40:53.106Z,11.88
2022-08-26T05:43:22.187Z,11.98
2022-08-26T05:45:51.874Z,11.95
2022-08-26T05:48:24.478Z,11.68
2022-08-26T05:50:54.749Z,11.13
2022-08-26T05:53:26.028Z,11.07
2022-08-26T05:55:55.898Z,11.52
2022-08-26T05:58:25.048Z,12.05
2022-08-26T06:01:01.323Z,11.88
2022-08-26T06:03:33.887Z,13.00
2022-08-26T06:06:06.699Z,12.23
2022-08-26T06:08:35.783Z,11.98
2022-08-26T06:11:07.474Z,12.27
2022-08-26T06:13:41.613Z,12.05
2022-08-26T06:16:13.200Z,11.80
2022-08-26T06:18:44.254Z,11.10
2022-08-26T06:21:18.476Z,10.95
2022-08-26T06:24:06.375Z,10.93
2022-08-26T06:26:36.705Z,11.95
2022-08-26T06:29:06.639Z,11.25
2022-08-26T06:31:38.164Z,11.20
2022-08-26T06:34:10.737Z,11.25
2022-08-26T06:36:44.707Z,11.27
2022-08-26T06:39:16.192Z,12.25
2022-08-26T06:41:45.706Z,12.88
2022-08-26T06:44:19.427Z,11.88
2022-08-26T06:46:50.204Z,11.52
2022-08-26T06:49:20.471Z,11.82
2022-08-26T06:51:58.916Z,11.73
2022-08-26T06:54:27.948Z,11.60
2022-08-26T06:56:57.483Z,11.40
2022-08-26T06:59:26.113Z,10.63
2022-08-26T07:01:55.115Z,11.10
2022-08-26T07:04:24.659Z,10.52
2022-08-26T07:06:53.958Z,10.88
2022-08-26T07:09:26.704Z,10.02
2022-08-26T07:11:57.151Z,10.10
2022-08-26T07:14:26.157Z,10.68
2022-08-26T07:16:55.767Z,9.45
2022-08-26T07:19:29.773Z,10.90
2022-08-26T07:22:01.887Z,9.32
2022-08-26T07:24:32.913Z,8.75
2022-08-26T07:27:02.841Z,9.40
2022-08-26T07:29:31.541Z,8.98
2022-08-26T07:32:00.184Z,9.07
2022-08-26T07:34:28.730Z,7.78
2022-08-26T07:36:58.823Z,8.07
2022-08-26T07:39:28.545Z,8.48
2022-08-26T07:42:01.684Z,8.25
2022-08-26T07:44:36.829Z,8.02
2022-08-26T07:47:10.046Z,8.32
2022-08-26T07:49:52.992Z,7.88
2022-08-26T07:52:26.391Z,8.18
2022-08-26T07:54:56.621Z,7.80
2022-08-26T07:57:26.613Z,7.18
2022-08-26T07:59:56.039Z,7.93
2022-08-26T08:02:27.115Z,7.13
2022-08-26T08:04:56.769Z,7.60
2022-08-26T08:07:38.784Z,7.57
2022-08-26T08:10:16.298Z,6.97
2022-08-26T08:12:46.207Z,6.90
2022-08-26T08:15:15.792Z,7.45
2022-08-26T08:17:44.810Z,7.22
2022-08-26T08:20:15.078Z,7.07
2022-08-26T08:22:44.078Z,7.78
2022-08-26T08:25:13.933Z,7.80
2022-08-26T08:27:45.791Z,7.15
2022-08-26T08:30:22.607Z,7.88
2022-08-26T08:32:51.333Z,7.63
2022-08-26T08:35:22.400Z,7.10
2022-08-26T08:37:54.381Z,7.95
2022-08-26T08:40:25.595Z,7.38
2022-08-26T08:43:00.721Z,7.43
2022-08-26T08:45:38.306Z,7.50
2022-08-26T08:48:15.201Z,6.85
2022-08-26T08:50:47.390Z,7.38
2022-08-26T08:53:20.384Z,7.05
2022-08-26T08:56:08.765Z,6.70
2022-08-26T08:58:51.449Z,6.88
2022-08-26T09:01:39.358Z,7.00
2022-08-26T09:04:35.107Z,7.22
2022-08-26T09:07:08.304Z,6.65
2022-08-26T09:09:40.780Z,6.68
2022-08-26T09:12:17.004Z,7.30
2022-08-26T09:14:51.056Z,7.40
2022-08-26T09:17:34.275Z,6.82
2022-08-26T09:20:13.479Z,7.13
2022-08-26T09:22:44.339Z,8.13
2022-08-26T09:25:15.779Z,6.53
2022-08-26T09:27:47.746Z,7.85
2022-08-26T09:30:27.510Z,6.55
2022-08-26T09:33:02.529Z,8.20
2022-08-26T09:35:34.270Z,6.90
2022-08-26T09:38:02.990Z,6.65
2022-08-26T09:40:35.407Z,7.35
2022-08-26T09:43:11.970Z,7.93
2022-08-26T09:45:44.462Z,6.75
2022-08-26T09:48:28.981Z,6.68
2022-08-26T09:51:00.526Z,6.13
2022-08-26T09:53:31.544Z,6.88
2022-08-26T09:56:18.589Z,6.25
2022-08-26T09:58:48.940Z,6.50
2022-08-26T10:01:30.694Z,6.70
2022-08-26T10:04:08.265Z,5.85
2022-08-26T10:06:41.616Z,6.35
2022-08-26T10:09:15.008Z,6.43
2022-08-26T10:11:48.883Z,6.20
2022-08-26T10:14:24.397Z,6.65
2022-08-26T10:17:02.716Z,6.50
2022-08-26T10:19:56.275Z,6.70
2022-08-26T10:22:31.460Z,6.90
2022-08-26T10:25:04.884Z,7.10
2022-08-26T10:27:51.359Z,6.45
2022-08-26T10:30:24.266Z,6.43
2022-08-26T10:32:59.072Z,7.28
2022-08-26T10:35:28.027Z,6.63
2022-08-26T10:38:03.935Z,7.72
2022-08-26T10:40:45.174Z,6.97
2022-08-26T10:43:23.525Z,6.50
2022-08-26T10:46:00.340Z,7.60
2022-08-26T10:49:00.357Z,6.25
2022-08-26T10:51:38.553Z,5.90
2022-08-26T10:54:14.495Z,5.70
2022-08-26T10:56:54.275Z,5.50
2022-08-26T10:59:32.286Z,5.80
2022-08-26T11:02:10.000Z,5.78
2022-08-26T11:04:49.166Z,5.20
2022-08-26T11:07:43.377Z,4.05
2022-08-26T11:11:04.853Z,4.78
2022-08-26T11:14:03.315Z,4.53
2022-08-26T11:16:42.796Z,5.00
2022-08-26T11:19:14.235Z,6.35
2022-08-26T11:21:52.492Z,6.55
2022-08-26T11:24:47.133Z,5.68
2022-08-26T11:28:05.238Z,6.60
2022-08-26T11:30:56.956Z,6.85
2022-08-26T11:33:58.245Z,7.28
2022-08-26T11:36:53.311Z,6.25
2022-08-26T11:39:28.678Z,6.72
2022-08-26T11:42:01.238Z,5.68
2022-08-26T11:44:40.620Z,7.10
2022-08-26T11:47:11.297Z,6.10
2022-08-26T11:49:41.178Z,6.80
2022-08-26T11:52:20.969Z,6.50
2022-08-26T11:55:03.367Z,6.82
2022-08-26T11:57:35.642Z,6.63
2022-08-26T12:00:08.332Z,7.18
2022-08-26T12:02:41.514Z,7.55
2022-08-26T12:05:10.201Z,8.10
2022-08-26T12:07:44.097Z,8.23
2022-08-26T12:10:29.822Z,8.20
2022-08-26T12:13:00.437Z,8.48
2022-08-26T12:15:30.200Z,8.25
2022-08-26T12:18:00.358Z,8.73
2022-08-26T12:20:47.975Z,8.27
2022-08-26T12:23:28.165Z,8.70
2022-08-26T12:26:07.295Z,7.18
2022-08-26T12:28:43.610Z,5.90
2022-08-26T12:31:11.922Z,5.70
2022-08-26T12:33:40.471Z,5.75
2022-08-26T12:36:08.794Z,5.75
2022-08-26T12:38:40.388Z,5.95
2022-08-26T12:41:08.803Z,5.80
2022-08-26T12:43:43.224Z,5.95
2022-08-26T12:46:15.337Z,5.18
2022-08-26T12:48:49.000Z,5.40
2022-08-26T12:51:25.910Z,5.15
2022-08-26T12:53:56.120Z,5.22
2022-08-26T12:56:31.547Z,4.95
2022-08-26T12:59:07.675Z,5.03
2022-08-26T13:01:42.871Z,5.35
2022-08-26T13:04:34.448Z,5.10
2022-08-26T13:07:30.080Z,5.57
2022-08-26T13:10:00.929Z,5.13
2022-08-26T13:12:34.424Z,6.03
2022-08-26T13:15:06.429Z,5.43
2022-08-26T13:17:35.865Z,6.10
2022-08-26T13:20:05.016Z,6.07
2022-08-26T13:22:33.434Z,6.35
2022-08-26T13:25:03.023Z,6.03
2022-08-26T13:27:31.265Z,5.93
2022-08-26T13:30:00.294Z,6.47
2022-08-26T13:32:28.917Z,6.47
2022-08-26T13:34:58.729Z,6.25
2022-08-26T13:37:34.735Z,7.30
2022-08-26T13:40:07.473Z,7.60
2022-08-26T13:42:36.098Z,8.15
2022-08-26T13:45:06.193Z,8.00
2022-08-26T13:47:34.402Z,8.07
2022-08-26T13:50:02.869Z,8.18
2022-08-26T13:52:31.305Z,7.50
2022-08-26T13:55:00.790Z,7.20
2022-08-26T13:57:31.327Z,8.50
2022-08-26T14:00:00.107Z,8.00
2022-08-26T14:02:29.027Z,8.68
2022-08-26T14:04:59.607Z,9.02
2022-08-26T14:07:27.831Z,8.30
2022-08-26T14:09:56.059Z,8.57
2022-08-26T14:12:24.419Z,8.90
2022-08-26T14:14:53.943Z,9.00
2022-08-26T14:17:24.460Z,8.77
2022-08-26T14:19:53.630Z,8.40
2022-08-26T14:22:23.408Z,10.30
2022-08-26T14:24:53.755Z,9.57
2022-08-26T14:27:21.936Z,10.20
2022-08-26T14:29:50.224Z,9.68
2022-08-26T14:32:26.166Z,9.27
2022-08-26T14:34:55.383Z,9.80
2022-08-26T14:37:23.837Z,10.48
2022-08-26T14:39:52.821Z,10.55
2022-08-26T14:42:24.567Z,9.75
2022-08-26T14:44:58.357Z,9.90
2022-08-26T14:47:28.015Z,9.85
2022-08-26T14:49:56.266Z,8.80
2022-08-26T14:52:24.900Z,8.77
2022-08-26T14:54:54.950Z,9.43
2022-08-26T14:57:23.954Z,9.38
2022-08-26T14:59:52.185Z,9.43
2022-08-26T15:02:32.910Z,8.43
2022-08-26T15:05:04.405Z,9.48
2022-08-26T15:07:32.788Z,8.15
2022-08-26T15:10:01.144Z,8.25
2022-08-26T15:12:29.325Z,8.10
2022-08-26T15:14:57.474Z,8.10
2022-08-26T15:17:26.210Z,7.80
2022-08-26T15:19:54.399Z,7.63
2022-08-26T15:22:24.191Z,7.72
2022-08-26T15:24:58.173Z,8.02
2022-08-26T15:27:26.562Z,7.78
2022-08-26T15:29:55.125Z,7.70
2022-08-26T15:32:24.260Z,7.93
2022-08-26T15:34:53.158Z,8.65
2022-08-26T15:37:22.843Z,8.07
2022-08-26T15:39:52.022Z,7.80
2022-08-26T15:42:20.870Z,7.90
2022-08-26T15:44:49.862Z,8.10
2022-08-26T15:47:18.376Z,7.88
2022-08-26T15:49:47.907Z,7.60
2022-08-26T15:52:17.417Z,7.47
2022-08-26T15:54:46.926Z,8.10
2022-08-26T15:57:17.599Z,7.00
2022-08-26T15:59:48.259Z,7.25
2022-08-26T16:02:19.517Z,6.90
2022-08-26T16:04:47.771Z,6.95
2022-08-26T16:07:15.986Z,6.80
2022-08-26T16:09:44.340Z,6.57
2022-08-26T16:14:44.499Z,7.55
2022-08-26T16:17:13.070Z,7.13
2022-08-26T16:19:41.249Z,7.00
2022-08-26T16:22:09.445Z,6.78
2022-08-26T16:24:38.389Z,6.85
2022-08-26T16:27:07.471Z,5.50
2022-08-26T16:29:39.756Z,4.15
2022-08-26T16:32:09.120Z,4.60
2022-08-26T16:34:37.289Z,3.47
2022-08-26T16:37:15.322Z,3.88
2022-08-26T16:39:45.088Z,3.80
2022-08-26T16:42:13.568Z,3.92
2022-08-26T16:44:45.262Z,4.20
2022-08-26T16:47:14.367Z,4.18
2022-08-26T16:49:43.830Z,3.22
2022-08-26T16:52:12.737Z,3.10
2022-08-26T16:54:43.553Z,3.25
2022-08-26T16:57:13.429Z,3.03
2022-08-26T16:59:43.175Z,3.97
2022-08-26T17:02:12.435Z,3.70
2022-08-26T17:04:41.702Z,3.90
2022-08-26T17:07:16.374Z,3.60
2022-08-26T17:09:44.551Z,3.63
2022-08-26T17:12:12.799Z,4.00
2022-08-26T17:14:42.437Z,4.65
2022-08-26T17:17:14.169Z,3.90
2022-08-26T17:19:47.099Z,4.00
2022-08-26T17:22:15.909Z,4.22
2022-08-26T17:24:44.195Z,4.15
2022-08-26T17:27:12.876Z,4.00
2022-08-26T17:29:42.435Z,3.70
2022-08-26T17:32:10.622Z,4.45
2022-08-26T17:34:38.890Z,4.22
2022-08-26T17:37:08.251Z,3.60
2022-08-26T17:39:42.423Z,4.25
2022-08-26T17:42:11.745Z,3.47
2022-08-26T17:44:40.452Z,3.63
2022-08-26T17:47:10.000Z,3.60
2022-08-26T17:49:38.235Z,3.50
2022-08-26T17:52:09.681Z,3.55
2022-08-26T17:54:39.673Z,3.85
2022-08-26T17:57:10.692Z,3.53
2022-08-26T17:59:40.946Z,3.33
2022-08-26T18:02:14.741Z,3.92
2022-08-26T18:04:43.052Z,3.63
2022-08-26T18:07:12.033Z,3.80
2022-08-26T18:09:40.606Z,3.90
2022-08-26T18:12:09.565Z,4.30
2022-08-26T18:14:37.904Z,3.40
2022-08-26T18:17:06.186Z,4.28
2022-08-26T18:19:35.762Z,3.80
2022-08-26T18:22:05.723Z,4.65
2022-08-26T18:24:34.817Z,4.75
2022-08-26T18:27:03.034Z,3.78
2022-08-26T18:29:31.242Z,4.70
2022-08-26T18:31:59.495Z,4.80
2022-08-26T18:34:31.639Z,4.13
2022-08-26T18:37:01.607Z,4.78
2022-08-26T18:39:29.909Z,4.43
2022-08-26T18:41:58.092Z,4.45
2022-08-26T18:44:26.371Z,4.95
2022-08-26T18:46:54.713Z,4.90
2022-08-26T18:49:23.191Z,5.45
2022-08-26T18:51:52.403Z,4.95
2022-08-26T18:54:22.495Z,5.20
2022-08-26T18:56:50.919Z,5.95
2022-08-26T18:59:19.285Z,5.38
2022-08-26T19:01:55.065Z,6.00
2022-08-26T19:04:23.340Z,5.80
2022-08-26T19:06:52.865Z,4.95
2022-08-26T19:09:22.967Z,5.97
2022-08-26T19:11:51.279Z,4.47
2022-08-26T19:14:20.689Z,4.72
2022-08-26T19:16:52.361Z,4.57
2022-08-26T19:19:23.814Z,4.22
2022-08-26T19:21:52.682Z,3.80
2022-08-26T19:24:23.164Z,3.97
2022-08-26T19:26:59.996Z,3.55
2022-08-26T19:29:30.807Z,3.60
2022-08-26T19:31:59.735Z,3.55
2022-08-26T19:34:27.975Z,3.45
2022-08-26T19:36:58.279Z,3.58
2022-08-26T19:39:28.149Z,4.20
2022-08-26T19:41:56.541Z,4.88
2022-08-26T19:44:42.936Z,4.53
2022-08-26T19:47:12.929Z,4.05
2022-08-26T19:49:41.122Z,3.53
2022-08-26T19:52:11.013Z,3.88
2022-08-26T19:54:41.217Z,3.67
2022-08-26T19:57:09.420Z,4.03
2022-08-26T19:59:37.648Z,3.85
2022-08-26T20:02:31.652Z,3.80
2022-08-26T20:04:59.848Z,3.85
2022-08-26T20:07:28.024Z,3.95
2022-08-26T20:09:59.333Z,4.35
2022-08-26T20:12:29.208Z,4.82
2022-08-26T20:14:57.456Z,4.38
2022-08-26T20:17:25.623Z,4.53
2022-08-26T20:20:13.302Z,4.93
2022-08-26T20:22:59.579Z,4.78
2022-08-26T20:25:29.456Z,4.72
2022-08-26T20:27:57.635Z,4.82
2022-08-26T20:30:25.814Z,4.60
2022-08-26T20:32:53.969Z,4.95
2022-08-26T20:35:23.819Z,4.53
2022-08-26T20:37:52.118Z,4.60
2022-08-26T20:40:21.314Z,4.72
2022-08-26T20:42:50.926Z,4.90
2022-08-26T20:45:19.272Z,5.00
2022-08-26T20:47:47.503Z,4.47
2022-08-26T20:50:15.736Z,4.72
2022-08-26T20:52:43.930Z,5.30
2022-08-26T20:55:12.926Z,5.00
2022-08-26T20:57:42.039Z,4.68
2022-08-26T21:00:16.244Z,5.10
2022-08-26T21:02:46.250Z,4.80
2022-08-26T21:05:14.466Z,4.75
2022-08-26T21:07:42.728Z,4.53
2022-08-26T21:10:12.508Z,5.13
2022-08-26T21:12:40.727Z,4.32
2022-08-26T21:15:11.774Z,4.15
2022-08-26T21:17:39.985Z,4.78
2022-08-26T21:20:09.495Z,4.43
2022-08-26T21:22:37.723Z,5.20
2022-08-26T21:25:07.212Z,4.93
2022-08-26T21:27:36.158Z,5.25
2022-08-26T21:30:05.143Z,4.72
2022-08-26T21:32:34.760Z,4.80
2022-08-26T21:35:03.048Z,4.95
2022-08-26T21:37:31.302Z,5.00
2022-08-26T21:40:01.853Z,4.78
2022-08-26T21:42:33.553Z,5.03
2022-08-26T21:45:03.250Z,4.40
2022-08-26T21:47:32.609Z,4.40
2022-08-26T21:50:02.413Z,4.78
2022-08-26T21:52:30.678Z,4.80
2022-08-26T21:54:59.702Z,4.85
2022-08-26T21:57:29.849Z,4.35
2022-08-26T21:59:58.482Z,4.30
2022-08-26T22:02:27.010Z,4.55
2022-08-26T22:04:56.383Z,4.20
2022-08-26T22:07:25.968Z,4.40
2022-08-26T22:09:54.143Z,4.05
2022-08-26T22:12:22.310Z,4.65
2022-08-26T22:14:50.493Z,4.50
2022-08-26T22:17:18.730Z,4.47
2022-08-26T22:19:47.570Z,4.57
2022-08-26T22:22:16.463Z,4.43
2022-08-26T22:24:45.965Z,4.93
2022-08-26T22:27:15.333Z,4.80
2022-08-26T22:29:43.712Z,4.00
2022-08-26T22:32:12.511Z,4.50
2022-08-26T22:34:41.828Z,3.88
2022-08-26T22:37:10.033Z,4.88
2022-08-26T22:39:38.731Z,4.60
2022-08-26T22:42:08.369Z,4.68
2022-08-26T22:44:37.550Z,5.30
2022-08-26T22:47:06.231Z,5.00
2022-08-26T22:49:34.428Z,5.10
2022-08-26T22:52:02.861Z,5.38
2022-08-26T22:54:31.146Z,5.75
2022-08-26T22:56:59.420Z,5.50
2022-08-26T22:59:30.131Z,5.65
2022-08-26T23:01:58.347Z,5.63
2022-08-26T23:04:26.555Z,5.53
2022-08-26T23:06:54.936Z,6.38
2022-08-26T23:09:23.142Z,6.20
2022-08-26T23:11:51.328Z,5.85
2022-08-26T23:14:19.999Z,5.78
2022-08-26T23:16:49.877Z,6.18
2022-08-26T23:19:21.527Z,5.72
2022-08-26T23:21:50.605Z,5.10
2022-08-26T23:24:19.423Z,5.60
2022-08-26T23:26:48.165Z,5.90
2022-08-26T23:29:16.710Z,6.03
2022-08-26T23:31:45.520Z,5.50
2022-08-26T23:34:32.699Z,6.20
2022-08-26T23:37:01.686Z,6.07
2022-08-26T23:39:30.264Z,6.22
2022-08-26T23:41:58.618Z,6.35
2022-08-26T23:44:26.958Z,5.93
2022-08-26T23:46:55.311Z,6.68
2022-08-26T23:49:25.892Z,5.55
2022-08-26T23:52:12.522Z,5.95
2022-08-26T23:54:41.631Z,5.63
2022-08-26T23:57:10.912Z,5.40
2022-08-26T23:59:40.190Z,5.45
